Time;durP1;ratioP1;P1;durP2;ratioP2;P2;SDS_P1;SDS_P2;PMS_P1;PMS_P2;Temp;Humidity;BMP_temperature;BMP_pressure;BME280_temperature;BME280_humidity;BME280_pressure;Samples;Min_cycle;Max_cycle;Signal;HPM_P1;HPM_P2
2022/05/07 00:00:36;;;;;;;38.43;16.23;;;14.10;33.90;;;;;;5073063;28;20479;-62
2022/05/07 00:03:03;;;;;;;40.03;15.70;;;14.10;34.10;;;;;;5077249;28;20527;-61
2022/05/07 00:05:29;;;;;;;40.87;16.00;;;14.00;34.00;;;;;;5078434;28;20486;-62
2022/05/07 00:07:56;;;;;;;39.40;15.77;;;14.00;34.40;;;;;;5075145;28;20851;-60
2022/05/07 00:10:23;;;;;;;38.67;14.43;;;14.00;34.40;;;;;;5074722;28;21314;-60
2022/05/07 00:12:51;;;;;;;40.43;14.90;;;14.00;34.50;;;;;;5075754;28;20462;-66
2022/05/07 00:15:18;;;;;;;37.10;13.73;;;14.00;34.30;;;;;;5075326;28;21921;-62
2022/05/07 00:18:03;;;;;;;42.90;15.77;;;14.00;34.30;;;;;;5074276;28;20475;-62
2022/05/07 00:20:31;;;;;;;40.97;15.63;;;14.00;34.40;;;;;;5073232;28;20472;-63
2022/05/07 00:22:58;;;;;;;43.13;16.23;;;13.90;34.50;;;;;;5076682;28;20461;-62
2022/05/07 00:25:25;;;;;;;39.10;15.63;;;13.90;34.60;;;;;;5078916;28;20480;-61
2022/05/07 00:27:53;;;;;;;38.50;15.03;;;13.90;34.80;;;;;;5076845;28;20453;-62
2022/05/07 00:30:20;;;;;;;41.20;15.80;;;13.80;34.70;;;;;;5078251;28;20484;-61
2022/05/07 00:32:47;;;;;;;39.30;15.93;;;13.80;34.80;;;;;;5074870;28;20460;-61
2022/05/07 00:35:14;;;;;;;41.20;16.00;;;13.70;34.90;;;;;;5076450;28;20864;-62
2022/05/07 00:37:41;;;;;;;41.70;16.97;;;13.70;35.00;;;;;;5076063;28;20864;-61
2022/05/07 00:40:09;;;;;;;39.60;15.67;;;13.70;35.00;;;;;;5080231;28;20489;-62
2022/05/07 00:42:36;;;;;;;41.37;16.50;;;13.70;35.00;;;;;;5071553;28;20892;-61
2022/05/07 00:45:05;;;;;;;41.30;16.20;;;13.70;35.00;;;;;;5075788;28;20837;-62
2022/05/07 00:47:32;;;;;;;41.87;17.70;;;13.70;34.80;;;;;;5079132;28;20464;-62
2022/05/07 00:51:33;;;;;;;42.10;16.20;;;13.60;34.70;;;;;;5081666;28;20572;-62
2022/05/07 00:52:47;;;;;;;42.67;16.97;;;13.60;34.70;;;;;;5072175;28;20531;-61
2022/05/07 00:55:15;;;;;;;43.50;16.97;;;13.50;34.90;;;;;;5084002;28;21107;-62
2022/05/07 00:57:42;;;;;;;45.60;18.90;;;13.50;35.00;;;;;;5079138;28;20469;-62
2022/05/07 01:00:12;;;;;;;45.53;18.13;;;13.40;34.90;;;;;;5079630;28;20490;-62
2022/05/07 01:02:41;;;;;;;47.23;18.10;;;13.40;34.80;;;;;;5073584;28;20466;-61
2022/05/07 01:05:09;;;;;;;43.30;16.53;;;13.40;35.10;;;;;;5079705;28;20969;-62
2022/05/07 01:07:37;;;;;;;39.93;16.07;;;13.30;35.20;;;;;;5078991;28;20464;-62
2022/05/07 01:10:05;;;;;;;39.27;13.70;;;13.20;35.30;;;;;;5075065;28;20583;-59
2022/05/07 01:12:32;;;;;;;40.57;15.43;;;13.20;35.50;;;;;;5072118;28;20460;-61
2022/05/07 01:15:01;;;;;;;39.57;14.97;;;13.10;35.30;;;;;;5071277;28;20977;-62
2022/05/07 01:17:32;;;;;;;39.97;14.93;;;13.00;35.20;;;;;;5078448;28;20460;-59
2022/05/07 01:19:58;;;;;;;40.70;15.63;;;12.90;35.40;;;;;;5074541;28;20472;-61
2022/05/07 01:22:29;;;;;;;41.80;15.73;;;12.90;35.40;;;;;;5075350;28;20970;-61
2022/05/07 01:24:56;;;;;;;39.70;14.30;;;12.80;35.60;;;;;;5077790;28;21106;-62
2022/05/07 01:27:23;;;;;;;41.47;15.80;;;12.80;35.60;;;;;;5076349;28;20477;-62
2022/05/07 01:29:50;;;;;;;39.60;14.07;;;12.70;35.70;;;;;;5072899;28;20506;-62
2022/05/07 01:32:17;;;;;;;39.50;13.73;;;12.70;35.80;;;;;;5070589;28;20484;-61
2022/05/07 01:34:44;;;;;;;37.83;13.83;;;12.60;35.80;;;;;;5076298;28;20468;-61
2022/05/07 01:37:11;;;;;;;42.70;13.03;;;12.50;35.80;;;;;;5075056;28;20453;-61
2022/05/07 01:39:39;;;;;;;37.17;13.20;;;12.40;36.00;;;;;;5073943;28;20481;-62
2022/05/07 01:42:06;;;;;;;42.83;13.50;;;12.30;35.90;;;;;;5077736;28;20527;-62
2022/05/07 01:44:33;;;;;;;38.87;13.87;;;12.30;36.00;;;;;;5073373;28;20514;-62
2022/05/07 01:49:44;;;;;;;41.37;14.23;;;12.30;36.10;;;;;;5072759;28;21183;-61
2022/05/07 01:52:11;;;;;;;40.50;14.70;;;12.10;36.40;;;;;;5074613;28;20492;-61
2022/05/07 01:54:39;;;;;;;39.20;13.57;;;12.10;36.80;;;;;;5078170;28;20457;-61
2022/05/07 01:57:07;;;;;;;40.03;13.83;;;12.00;37.20;;;;;;5077335;28;20842;-61
2022/05/07 01:59:34;;;;;;;42.37;15.60;;;11.90;37.30;;;;;;5078746;28;20575;-61
2022/05/07 02:02:01;;;;;;;42.73;14.83;;;11.80;37.20;;;;;;5073611;28;20990;-62
2022/05/07 02:04:28;;;;;;;40.90;14.50;;;11.80;37.70;;;;;;5080524;28;20534;-61
2022/05/07 02:06:55;;;;;;;40.17;14.50;;;11.80;37.70;;;;;;5081192;28;20480;-61
2022/05/07 02:09:22;;;;;;;41.30;14.90;;;11.80;37.70;;;;;;5078040;28;20476;-62
2022/05/07 02:11:50;;;;;;;40.07;15.90;;;11.70;37.80;;;;;;5081106;28;21053;-62
2022/05/07 02:14:17;;;;;;;41.23;15.27;;;11.70;38.30;;;;;;5086357;28;20464;-62
2022/05/07 02:16:44;;;;;;;42.93;16.30;;;11.70;38.60;;;;;;5080068;28;20842;-61
2022/05/07 02:19:10;;;;;;;42.40;16.03;;;11.60;38.90;;;;;;5088088;28;20480;-61
2022/05/07 02:21:37;;;;;;;42.80;17.60;;;11.60;39.00;;;;;;5083694;28;20456;-61
2022/05/07 02:24:05;;;;;;;45.07;15.57;;;11.60;39.40;;;;;;5073929;28;20459;-62
2022/05/07 02:26:32;;;;;;;43.83;16.97;;;11.60;39.30;;;;;;5078840;28;20472;-62
2022/05/07 02:29:00;;;;;;;40.43;15.70;;;11.50;39.50;;;;;;5080703;28;21114;-62
2022/05/07 02:31:26;;;;;;;45.00;16.10;;;11.50;39.60;;;;;;5076460;28;20476;-60
2022/05/07 02:33:53;;;;;;;47.63;17.57;;;11.50;39.60;;;;;;5075128;28;20469;-62
2022/05/07 02:36:20;;;;;;;41.07;15.23;;;11.40;39.70;;;;;;5082037;28;20474;-62
2022/05/07 02:38:46;;;;;;;41.97;15.70;;;11.50;39.60;;;;;;5077655;28;21139;-62
2022/05/07 02:43:58;;;;;;;44.03;16.40;;;11.50;39.30;;;;;;5076524;28;20472;-61
2022/05/07 02:46:26;;;;;;;41.60;15.93;;;11.50;39.30;;;;;;5080213;28;20483;-61
2022/05/07 02:48:52;;;;;;;41.90;14.87;;;11.50;39.30;;;;;;5073258;28;20463;-62
2022/05/07 02:51:19;;;;;;;40.17;14.03;;;11.50;39.30;;;;;;5077369;28;20454;-62
2022/05/07 02:53:47;;;;;;;42.00;14.67;;;11.50;39.10;;;;;;5083105;28;20468;-62
2022/05/07 02:56:13;;;;;;;43.73;13.27;;;11.50;39.00;;;;;;5075467;28;20464;-61
2022/05/07 02:58:40;;;;;;;40.50;13.67;;;11.50;39.00;;;;;;5076322;28;20470;-63
2022/05/07 03:01:07;;;;;;;38.10;12.40;;;11.40;38.70;;;;;;5079039;28;20477;-61
2022/05/07 03:03:35;;;;;;;40.17;13.63;;;11.40;38.90;;;;;;5072431;28;20457;-62
2022/05/07 03:06:02;;;;;;;39.17;13.00;;;11.30;38.80;;;;;;5074102;28;20474;-62
2022/05/07 03:08:28;;;;;;;39.27;12.80;;;11.30;38.60;;;;;;5083715;28;20827;-62
2022/05/07 03:10:55;;;;;;;41.80;14.07;;;11.30;38.50;;;;;;5085007;28;20496;-61
2022/05/07 03:13:22;;;;;;;39.20;13.40;;;11.30;38.40;;;;;;5079319;28;20461;-61
2022/05/07 03:15:48;;;;;;;42.20;14.37;;;11.30;38.50;;;;;;5075597;28;21142;-61
2022/05/07 03:18:15;;;;;;;39.70;14.03;;;11.20;38.50;;;;;;5077108;28;20472;-62
2022/05/07 03:20:43;;;;;;;40.50;14.33;;;11.20;38.80;;;;;;5077285;28;22080;-62
2022/05/07 03:23:12;;;;;;;41.90;13.80;;;11.10;39.20;;;;;;5074005;28;20468;-61
2022/05/07 03:25:39;;;;;;;44.13;15.40;;;11.10;39.00;;;;;;5080546;28;21382;-61
2022/05/07 03:28:07;;;;;;;41.43;14.80;;;11.10;38.90;;;;;;5072628;28;20978;-61
2022/05/07 03:30:33;;;;;;;40.60;14.90;;;11.00;39.60;;;;;;5083913;28;20495;-62
2022/05/07 03:33:00;;;;;;;43.17;15.53;;;11.00;39.40;;;;;;5079084;28;20456;-64
2022/05/07 03:35:28;;;;;;;43.30;15.10;;;11.00;39.30;;;;;;5075653;28;21041;-61
2022/05/07 03:37:56;;;;;;;39.60;13.63;;;11.00;39.60;;;;;;5083242;28;20453;-60
2022/05/07 03:40:23;;;;;;;44.47;13.00;;;11.00;39.70;;;;;;5080252;28;20485;-60
2022/05/07 03:42:50;;;;;;;44.53;16.07;;;11.00;39.40;;;;;;5078872;28;20857;-62
2022/05/07 03:45:16;;;;;;;45.80;14.87;;;10.90;39.60;;;;;;5074899;28;20467;-62
2022/05/07 03:47:43;;;;;;;41.70;13.77;;;10.90;39.60;;;;;;5076347;28;20481;-62
2022/05/07 03:50:10;;;;;;;44.00;15.00;;;10.80;39.70;;;;;;5085208;28;21193;-62
2022/05/07 03:55:22;;;;;;;41.37;14.27;;;10.80;40.10;;;;;;5057949;28;21181;-62
2022/05/07 03:57:48;;;;;;;44.33;15.50;;;10.80;40.10;;;;;;5082349;28;20453;-61
2022/05/07 04:00:15;;;;;;;45.20;16.93;;;10.80;40.00;;;;;;5079138;28;20471;-62
2022/05/07 04:02:42;;;;;;;43.63;15.50;;;10.80;40.30;;;;;;5072402;28;20457;-62
2022/05/07 04:05:09;;;;;;;43.90;16.27;;;10.90;40.70;;;;;;5077739;28;20456;-61
2022/05/07 04:07:37;;;;;;;40.70;15.50;;;10.90;40.40;;;;;;5074896;28;20484;-62
2022/05/07 04:10:05;;;;;;;43.03;15.60;;;11.00;40.30;;;;;;5080001;28;20476;-62
2022/05/07 04:12:34;;;;;;;42.27;14.53;;;11.00;40.00;;;;;;5078435;28;20461;-62
2022/05/07 04:15:01;;;;;;;40.90;13.83;;;11.10;40.20;;;;;;5074527;28;20469;-61
2022/05/07 04:17:28;;;;;;;45.67;15.30;;;11.20;40.10;;;;;;5075505;28;21033;-61
2022/05/07 04:19:55;;;;;;;40.97;14.70;;;11.20;39.90;;;;;;5076565;28;20476;-61
2022/05/07 04:22:22;;;;;;;42.77;15.27;;;11.30;39.90;;;;;;5084012;28;20475;-62
2022/05/07 04:24:48;;;;;;;42.70;14.37;;;11.30;40.00;;;;;;5075279;28;20461;-62
2022/05/07 04:27:15;;;;;;;40.40;13.07;;;11.30;39.90;;;;;;5073958;28;20481;-62
2022/05/07 04:29:43;;;;;;;38.83;12.80;;;11.40;39.70;;;;;;5076365;28;21056;-62
2022/05/07 04:32:10;;;;;;;38.37;12.27;;;11.40;39.60;;;;;;5072613;28;20480;-63
2022/05/07 04:34:37;;;;;;;41.30;14.00;;;11.40;39.50;;;;;;5073937;28;20523;-62
2022/05/07 04:37:04;;;;;;;37.20;12.80;;;11.40;39.70;;;;;;5076454;28;20811;-60
2022/05/07 04:39:33;;;;;;;39.20;13.47;;;11.40;39.70;;;;;;5080319;28;20483;-63
2022/05/07 04:42:00;;;;;;;38.17;13.03;;;11.50;40.00;;;;;;5073100;28;20807;-63
2022/05/07 04:44:26;;;;;;;40.03;13.00;;;11.50;40.00;;;;;;5082870;28;20471;-61
2022/05/07 04:46:55;;;;;;;38.70;13.33;;;11.60;39.70;;;;;;5079241;28;20472;-62
2022/05/07 04:49:22;;;;;;;41.47;13.90;;;11.60;39.50;;;;;;5073296;28;20691;-61
2022/05/07 04:51:50;;;;;;;38.30;11.83;;;11.70;39.40;;;;;;5081112;28;20539;-62
2022/05/07 04:54:18;;;;;;;39.40;13.30;;;11.80;39.10;;;;;;5075797;28;20458;-62
2022/05/07 04:56:45;;;;;;;37.67;12.17;;;11.90;39.00;;;;;;5073626;28;20461;-61
2022/05/07 04:59:12;;;;;;;39.30;12.97;;;11.90;38.80;;;;;;5077147;28;20472;-61
2022/05/07 05:01:39;;;;;;;42.57;14.83;;;12.10;38.80;;;;;;5075467;28;20901;-61
2022/05/07 05:04:07;;;;;;;38.03;12.50;;;12.20;38.70;;;;;;5072551;28;21098;-62
2022/05/07 05:06:34;;;;;;;39.17;14.60;;;12.30;38.50;;;;;;5071383;28;20559;-62
2022/05/07 05:09:01;;;;;;;42.13;12.83;;;12.40;38.30;;;;;;5074514;28;20460;-62
2022/05/07 05:11:27;;;;;;;38.33;14.20;;;12.60;38.10;;;;;;5077282;28;20464;-62
2022/05/07 05:13:54;;;;;;;38.70;13.13;;;12.80;38.10;;;;;;5080570;28;20465;-61
2022/05/07 05:16:21;;;;;;;40.20;14.27;;;12.90;38.10;;;;;;5077466;28;21121;-62
2022/05/07 05:18:48;;;;;;;37.97;14.17;;;13.20;38.00;;;;;;5075429;28;20469;-61
2022/05/07 05:21:16;;;;;;;37.73;12.90;;;13.40;37.20;;;;;;5076315;28;20511;-61
2022/05/07 05:23:46;;;;;;;40.43;14.80;;;13.80;37.00;;;;;;5076146;28;20831;-62
2022/05/07 05:26:13;;;;;;;39.10;13.87;;;14.30;36.30;;;;;;5078079;28;20459;-62
2022/05/07 05:28:40;;;;;;;38.83;14.07;;;14.70;35.00;;;;;;5085311;28;20836;-61
2022/05/07 05:31:07;;;;;;;42.13;13.23;;;15.30;33.30;;;;;;5076633;28;20465;-62
2022/05/07 05:33:34;;;;;;;39.37;13.60;;;15.90;31.40;;;;;;5080257;28;20461;-62
2022/05/07 05:36:00;;;;;;;38.47;12.57;;;16.50;29.70;;;;;;5076034;28;20888;-61
2022/05/07 05:38:30;;;;;;;38.37;13.73;;;17.30;27.40;;;;;;5082448;28;20990;-61
2022/05/07 05:40:56;;;;;;;43.50;13.10;;;17.70;25.00;;;;;;5082489;28;20878;-62
2022/05/07 05:43:23;;;;;;;37.03;12.93;;;17.80;24.10;;;;;;5078300;28;20468;-61
2022/05/07 05:45:50;;;;;;;36.80;12.80;;;17.70;23.50;;;;;;5079346;28;20518;-62
2022/05/07 05:48:16;;;;;;;39.70;13.00;;;17.70;23.40;;;;;;5078091;28;20491;-62
2022/05/07 05:50:43;;;;;;;39.10;13.90;;;17.90;23.60;;;;;;5079130;28;20486;-62
2022/05/07 05:53:10;;;;;;;40.50;13.37;;;18.10;23.20;;;;;;5083221;28;20834;-61
2022/05/07 05:55:38;;;;;;;37.00;12.97;;;18.20;22.60;;;;;;5085827;28;20464;-63
2022/05/07 05:58:05;;;;;;;40.33;13.23;;;18.40;22.40;;;;;;5077457;28;20454;-63
2022/05/07 06:00:32;;;;;;;42.20;13.80;;;18.50;21.30;;;;;;5079303;28;20457;-63
2022/05/07 06:02:58;;;;;;;38.87;13.60;;;18.50;21.30;;;;;;5083908;28;20475;-62
2022/05/07 06:05:26;;;;;;;38.27;13.57;;;18.50;20.90;;;;;;5076611;28;20468;-61
2022/05/07 06:07:52;;;;;;;38.93;14.43;;;18.60;20.80;;;;;;5084503;28;20977;-62
2022/05/07 06:10:19;;;;;;;40.10;14.57;;;18.80;20.30;;;;;;5082960;28;20483;-62
2022/05/07 06:12:47;;;;;;;35.93;12.47;;;19.00;20.00;;;;;;5083619;28;20476;-62
2022/05/07 06:15:14;;;;;;;39.67;13.67;;;19.20;19.90;;;;;;5084486;28;20468;-62
2022/05/07 06:17:41;;;;;;;38.40;14.27;;;19.30;19.60;;;;;;5077331;28;20472;-63
2022/05/07 06:20:08;;;;;;;41.30;15.70;;;19.70;19.50;;;;;;5076264;28;20487;-62
2022/05/07 06:22:35;;;;;;;38.43;14.77;;;20.00;18.60;;;;;;5080929;28;21181;-63
2022/05/07 06:27:47;;;;;;;38.07;14.40;;;20.40;17.80;;;;;;5082320;28;21066;-62
2022/05/07 06:30:14;;;;;;;36.10;13.57;;;20.50;17.20;;;;;;5078539;28;20491;-62
2022/05/07 06:32:41;;;;;;;39.40;14.80;;;20.50;17.40;;;;;;5083435;28;20839;-63
2022/05/07 06:35:09;;;;;;;37.60;14.70;;;20.30;17.40;;;;;;5080385;28;20489;-62
2022/05/07 06:37:38;;;;;;;38.10;14.97;;;20.10;17.50;;;;;;5077409;28;20837;-62
2022/05/07 06:40:07;;;;;;;38.53;15.50;;;19.90;17.70;;;;;;5085302;28;20480;-63
2022/05/07 06:42:35;;;;;;;38.30;15.10;;;19.70;18.10;;;;;;5078159;28;20472;-62
2022/05/07 06:45:03;;;;;;;38.80;14.33;;;19.60;18.70;;;;;;5081368;28;20468;-62
2022/05/07 06:47:31;;;;;;;37.37;14.60;;;19.60;18.70;;;;;;5080747;28;20485;-63
2022/05/07 06:49:58;;;;;;;37.80;15.30;;;19.70;18.50;;;;;;5083451;28;20552;-62
2022/05/07 06:52:25;;;;;;;37.33;15.63;;;19.90;18.50;;;;;;5077870;28;20508;-60
2022/05/07 06:54:52;;;;;;;40.00;15.53;;;20.20;18.60;;;;;;5077932;28;21202;-63
2022/05/07 06:57:18;;;;;;;40.80;14.93;;;20.60;18.30;;;;;;5078837;28;20461;-61
2022/05/07 06:59:45;;;;;;;38.60;15.33;;;21.30;17.70;;;;;;5078837;28;20718;-62
2022/05/07 07:02:13;;;;;;;36.43;15.20;;;22.80;16.10;;;;;;5078395;28;20479;-62
2022/05/07 07:04:40;;;;;;;37.17;16.13;;;24.20;12.80;;;;;;5079519;28;20469;-67
2022/05/07 07:07:07;;;;;;;35.20;13.60;;;24.90;11.00;;;;;;5077778;28;21188;-64
2022/05/07 07:09:34;;;;;;;39.30;14.70;;;25.20;9.50;;;;;;5078280;28;20491;-64
2022/05/07 07:12:01;;;;;;;35.03;14.33;;;25.00;9.30;;;;;;5078705;28;20456;-64
2022/05/07 07:14:28;;;;;;;36.97;14.70;;;24.90;9.20;;;;;;5074304;28;20461;-64
2022/05/07 07:16:54;;;;;;;36.40;14.63;;;24.60;9.50;;;;;;5074346;28;20946;-65
2022/05/07 07:19:22;;;;;;;36.70;14.50;;;24.40;10.10;;;;;;5080021;28;20481;-65
2022/05/07 07:21:50;;;;;;;40.50;15.30;;;24.30;10.20;;;;;;5076279;28;20591;-65
2022/05/07 07:24:18;;;;;;;37.83;15.17;;;24.30;10.20;;;;;;5077987;28;20464;-66
2022/05/07 07:26:45;;;;;;;42.33;15.10;;;24.40;10.10;;;;;;5078489;28;20461;-65
2022/05/07 07:29:11;;;;;;;40.40;14.97;;;24.70;10.00;;;;;;5080513;28;20484;-65
2022/05/07 07:31:38;;;;;;;37.60;15.07;;;25.30;9.30;;;;;;5078487;28;20500;-66
2022/05/07 07:34:05;;;;;;;39.70;15.13;;;27.20;7.60;;;;;;5080834;28;20460;-65
2022/05/07 07:36:33;;;;;;;35.03;14.57;;;28.50;5.20;;;;;;5076189;28;20472;-66
2022/05/07 07:39:04;;;;;;;37.97;15.80;;;29.30;4.00;;;;;;5076099;28;20463;-65
2022/05/07 07:41:30;;;;;;;36.20;13.60;;;29.20;3.20;;;;;;5083803;28;20518;-64
2022/05/07 07:43:57;;;;;;;35.30;14.10;;;28.90;3.30;;;;;;5080248;28;20555;-66
2022/05/07 07:49:09;;;;;;;33.70;13.00;;;32.50;1.00;;;;;;5087450;28;20484;-65
2022/05/07 07:51:37;;;;;;;33.07;13.77;;;34.70;1.00;;;;;;5081904;28;20512;-66
2022/05/07 07:54:04;;;;;;;32.80;13.40;;;34.70;1.00;;;;;;5084066;28;20469;-63
2022/05/07 07:56:30;;;;;;;31.10;13.00;;;35.20;1.00;;;;;;5077326;28;20479;-61
2022/05/07 07:58:57;;;;;;;32.53;13.10;;;36.00;1.00;;;;;;5080380;28;20460;-66
2022/05/07 08:01:24;;;;;;;29.83;11.90;;;36.80;1.00;;;;;;5080265;28;20480;-64
2022/05/07 08:03:51;;;;;;;31.17;11.60;;;38.10;1.00;;;;;;5083525;28;20813;-63
2022/05/07 08:06:17;;;;;;;29.80;11.70;;;39.20;1.00;;;;;;5080065;28;20465;-63
2022/05/07 08:11:42;;;;;;;31.50;12.30;;;39.50;1.00;;;;;;5078680;28;20456;-63
2022/05/07 08:14:09;;;;;;;31.47;12.77;;;39.40;1.00;;;;;;5080020;28;20537;-63
2022/05/07 08:16:37;;;;;;;30.50;13.17;;;39.50;1.00;;;;;;5071709;28;20506;-65
2022/05/07 08:19:04;;;;;;;28.93;12.00;;;39.50;1.00;;;;;;5079667;28;20453;-63
2022/05/07 08:21:30;;;;;;;30.00;12.80;;;39.20;1.00;;;;;;5077001;28;20460;-63
2022/05/07 08:23:59;;;;;;;31.80;12.43;;;39.30;1.00;;;;;;5076337;28;20747;-66
2022/05/07 08:26:26;;;;;;;29.00;12.60;;;39.60;1.00;;;;;;5068023;28;20480;-61
2022/05/07 08:28:52;;;;;;;28.50;12.00;;;40.00;1.00;;;;;;5068137;28;20489;-60
2022/05/07 08:31:22;;;;;;;30.60;10.93;;;40.70;1.00;;;;;;5072024;28;20560;-63
2022/05/07 08:33:49;;;;;;;29.40;11.60;;;41.20;1.00;;;;;;5069325;28;20469;-63
2022/05/07 08:36:16;;;;;;;31.80;12.07;;;41.50;1.00;;;;;;5072075;28;20476;-63
2022/05/07 08:38:43;;;;;;;29.00;12.60;;;42.20;1.00;;;;;;5072247;28;20479;-62
2022/05/07 08:41:11;;;;;;;28.10;11.93;;;41.90;1.00;;;;;;5071105;28;20484;-62
2022/05/07 08:43:41;;;;;;;27.37;11.77;;;41.30;1.00;;;;;;5072143;28;20993;-62
2022/05/07 08:46:13;;;;;;;30.00;12.50;;;40.50;1.00;;;;;;5072147;28;20464;-62
2022/05/07 08:48:40;;;;;;;29.90;12.97;;;39.20;1.00;;;;;;5068681;28;20552;-62
2022/05/07 08:51:07;;;;;;;31.50;13.53;;;37.50;1.00;;;;;;5070617;28;21066;-61
2022/05/07 08:53:35;;;;;;;33.70;13.57;;;36.10;1.00;;;;;;5068981;28;20468;-62
2022/05/07 08:56:02;;;;;;;32.80;14.50;;;35.20;1.00;;;;;;5070929;28;20488;-62
2022/05/07 08:58:30;;;;;;;32.87;14.20;;;34.60;1.00;;;;;;5068326;28;20817;-60
2022/05/07 09:00:59;;;;;;;34.07;15.20;;;34.80;1.00;;;;;;5067163;28;20916;-61
2022/05/07 09:03:26;;;;;;;33.80;13.30;;;35.70;1.00;;;;;;5071110;28;20468;-62
2022/05/07 09:05:53;;;;;;;31.80;13.57;;;37.80;1.00;;;;;;5071603;28;20464;-62
2022/05/07 09:08:26;;;;;;;28.60;11.90;;;40.10;1.00;;;;;;5070869;28;20487;-61
2022/05/07 09:10:55;;;;;;;30.87;12.23;;;41.60;1.00;;;;;;5069954;28;20495;-62
2022/05/07 09:13:21;;;;;;;30.03;12.80;;;42.80;1.00;;;;;;5068752;28;20544;-62
2022/05/07 09:15:57;;;;;;;28.93;11.77;;;44.20;1.00;;;;;;5072040;28;20983;-63
2022/05/07 09:18:25;;;;;;;27.83;11.33;;;45.30;1.00;;;;;;5067451;28;20465;-62
2022/05/07 09:21:15;;;;;;;27.90;11.27;;;46.20;1.00;;;;;;5069691;28;20858;-62
2022/05/07 09:23:44;;;;;;;26.00;11.33;;;46.80;1.00;;;;;;5071755;28;20468;-62
2022/05/07 09:26:10;;;;;;;26.73;10.03;;;46.70;1.00;;;;;;5068356;28;20468;-62
2022/05/07 09:28:38;;;;;;;27.30;10.20;;;46.40;1.00;;;;;;5067381;28;20592;-63
2022/05/07 09:31:06;;;;;;;28.57;9.30;;;46.00;1.00;;;;;;5070062;28;20476;-63
2022/05/07 09:33:34;;;;;;;27.23;10.60;;;45.60;1.00;;;;;;5069680;28;20535;-63
2022/05/07 09:36:10;;;;;;;25.97;9.13;;;45.90;1.00;;;;;;5071489;28;20503;-63
2022/05/07 09:38:38;;;;;;;26.43;8.50;;;45.20;1.00;;;;;;5071709;28;21726;-60
2022/05/07 09:41:05;;;;;;;25.83;9.07;;;44.40;1.00;;;;;;5068577;28;20489;-63
2022/05/07 09:43:33;;;;;;;26.60;8.90;;;43.20;1.00;;;;;;5070370;28;20460;-62
2022/05/07 09:46:00;;;;;;;28.10;10.73;;;43.30;1.00;;;;;;5071445;28;20986;-63
2022/05/07 09:48:29;;;;;;;26.10;8.90;;;43.70;1.00;;;;;;5071288;28;20496;-62
2022/05/07 09:50:58;;;;;;;27.30;8.40;;;43.50;1.00;;;;;;5069604;28;20480;-62
2022/05/07 09:58:53;;;;;;;26.27;9.70;;;45.40;1.00;;;;;;5069976;28;20490;-63
2022/05/07 10:01:33;;;;;;;28.27;8.83;;;45.90;1.00;;;;;;5071589;28;20484;-63
2022/05/07 10:04:21;;;;;;;47.90;21.30;;;45.50;1.00;;;;;;5072812;28;20461;-62
2022/05/07 10:07:02;;;;;;;32.40;12.70;;;44.20;1.00;;;;;;5066827;28;20593;-62
2022/05/07 10:09:42;;;;;;;31.10;10.83;;;42.50;1.00;;;;;;5070546;28;20498;-61
2022/05/07 10:12:10;;;;;;;29.47;9.97;;;40.80;1.00;;;;;;5069439;28;22634;-62
2022/05/07 10:14:37;;;;;;;29.13;9.60;;;39.20;1.00;;;;;;5071420;28;20465;-61
2022/05/07 10:17:11;;;;;;;31.93;11.87;;;37.70;1.00;;;;;;5072670;28;20472;-62
2022/05/07 10:19:42;;;;;;;31.17;10.40;;;36.30;1.00;;;;;;5073409;28;20922;-62
2022/05/07 10:22:21;;;;;;;30.93;9.63;;;35.20;1.00;;;;;;5072327;28;20475;-61
2022/05/07 10:24:49;;;;;;;31.60;10.90;;;34.20;1.00;;;;;;5072584;28;20464;-61
2022/05/07 10:27:23;;;;;;;30.23;8.77;;;33.50;1.00;;;;;;5075175;28;20840;-62
2022/05/07 10:29:51;;;;;;;34.10;12.20;;;32.70;1.00;;;;;;5070964;28;20540;-61
2022/05/07 10:32:19;;;;;;;29.77;10.03;;;32.00;1.00;;;;;;5070919;28;20574;-62
2022/05/07 10:34:56;;;;;;;29.67;10.30;;;31.50;1.00;;;;;;5071442;28;20522;-61
2022/05/07 10:37:23;;;;;;;33.10;10.70;;;31.10;1.00;;;;;;5070443;28;20538;-61
2022/05/07 10:39:52;;;;;;;30.83;11.47;;;30.60;1.00;;;;;;5073010;28;20480;-63
2022/05/07 10:42:21;;;;;;;32.77;10.47;;;30.10;1.00;;;;;;5069310;28;20481;-60
2022/05/07 10:44:48;;;;;;;31.10;10.63;;;29.80;1.00;;;;;;5068012;28;21748;-61
2022/05/07 10:47:17;;;;;;;36.77;12.10;;;29.50;1.00;;;;;;5073321;28;20468;-62
2022/05/07 10:49:56;;;;;;;32.80;12.17;;;29.10;1.00;;;;;;5073507;28;20491;-62
2022/05/07 10:52:33;;;;;;;31.20;11.23;;;28.90;1.00;;;;;;5071270;28;20478;-61
2022/05/07 10:55:11;;;;;;;31.70;10.50;;;28.80;1.00;;;;;;5071773;28;21079;-61
2022/05/07 10:57:43;;;;;;;31.40;11.20;;;28.70;1.00;;;;;;5072606;28;20474;-61
2022/05/07 11:00:12;;;;;;;32.57;11.33;;;28.50;1.00;;;;;;5072437;28;20491;-61
2022/05/07 11:02:39;;;;;;;32.73;12.37;;;28.30;1.00;;;;;;5071511;28;20476;-60
2022/05/07 11:05:08;;;;;;;31.40;10.73;;;28.20;1.00;;;;;;5074495;28;20460;-60
2022/05/07 11:07:35;;;;;;;32.77;10.90;;;27.80;1.00;;;;;;5072148;28;20476;-60
2022/05/07 11:10:03;;;;;;;30.60;9.73;;;27.60;1.90;;;;;;5076675;28;20480;-61
2022/05/07 11:12:30;;;;;;;33.60;12.00;;;27.50;1.60;;;;;;5075533;28;20518;-59
2022/05/07 11:14:57;;;;;;;32.40;10.93;;;27.30;1.70;;;;;;5076184;28;20460;-60
2022/05/07 11:17:31;;;;;;;33.10;12.40;;;27.20;1.50;;;;;;5083430;28;20460;-61
2022/05/07 11:19:58;;;;;;;31.63;10.57;;;27.10;1.60;;;;;;5080093;28;21192;-61
2022/05/07 11:22:30;;;;;;;30.80;9.90;;;27.00;2.00;;;;;;5075315;28;20599;-61
2022/05/07 11:24:58;;;;;;;30.53;9.90;;;27.00;1.70;;;;;;5076198;28;20507;-61
2022/05/07 11:27:29;;;;;;;32.27;10.33;;;26.90;2.70;;;;;;5077830;28;20993;-61
2022/05/07 11:29:56;;;;;;;36.63;10.37;;;26.90;2.00;;;;;;5077120;28;20926;-60
2022/05/07 11:32:24;;;;;;;32.40;8.87;;;26.70;1.70;;;;;;5073399;28;20481;-60
2022/05/07 11:34:56;;;;;;;31.50;9.70;;;26.70;2.10;;;;;;5073555;28;20472;-60
2022/05/07 11:37:25;;;;;;;32.70;10.50;;;26.70;2.70;;;;;;5072610;28;20500;-61
2022/05/07 11:39:54;;;;;;;31.17;9.90;;;26.60;2.20;;;;;;5074868;28;21058;-60
2022/05/07 11:42:27;;;;;;;32.70;9.33;;;26.50;2.70;;;;;;5074073;28;20453;-60
2022/05/07 11:47:38;;;;;;;33.80;10.13;;;26.20;2.90;;;;;;5072318;28;20522;-60
2022/05/07 11:50:06;;;;;;;34.23;10.00;;;26.00;2.60;;;;;;5072345;28;20492;-61
2022/05/07 11:52:35;;;;;;;31.33;10.70;;;25.90;3.40;;;;;;5071619;28;20570;-61
2022/05/07 11:55:06;;;;;;;30.17;9.03;;;25.90;3.30;;;;;;5072326;28;20464;-60
2022/05/07 11:57:34;;;;;;;34.40;11.10;;;25.70;4.00;;;;;;5072622;28;20468;-60
2022/05/07 12:00:14;;;;;;;33.90;9.93;;;25.40;3.30;;;;;;5071373;28;20565;-60
2022/05/07 12:02:41;;;;;;;30.47;9.43;;;25.10;3.80;;;;;;5070768;28;20556;-60
2022/05/07 12:05:07;;;;;;;33.90;10.80;;;25.00;4.80;;;;;;5071242;28;20457;-60
2022/05/07 12:07:41;;;;;;;31.13;10.23;;;25.00;4.80;;;;;;5070921;28;20465;-60
2022/05/07 12:10:08;;;;;;;33.80;11.67;;;25.00;4.50;;;;;;5069710;28;20499;-61
2022/05/07 12:12:35;;;;;;;35.27;12.17;;;25.00;4.40;;;;;;5072947;28;20472;-60
2022/05/07 12:15:02;;;;;;;32.00;11.33;;;25.00;4.80;;;;;;5072224;28;20461;-60
2022/05/07 12:20:13;;;;;;;33.93;11.10;;;24.90;4.80;;;;;;5073140;28;20476;-60
2022/05/07 12:30:54;;;;;;;32.40;10.23;;;24.50;5.60;;;;;;5072325;28;20522;-60
2022/05/07 12:33:21;;;;;;;34.27;10.80;;;24.70;6.00;;;;;;5072836;28;20463;-60
2022/05/07 12:35:49;;;;;;;33.23;10.03;;;24.80;5.50;;;;;;5082963;28;20582;-59
2022/05/07 12:38:17;;;;;;;32.00;9.63;;;24.80;5.20;;;;;;5071516;28;20486;-60
2022/05/07 12:40:44;;;;;;;38.00;11.10;;;24.80;5.90;;;;;;5078492;28;20484;-60
2022/05/07 12:43:11;;;;;;;33.23;10.50;;;24.70;5.30;;;;;;5076845;28;20464;-60
2022/05/07 12:45:37;;;;;;;32.03;10.77;;;24.60;5.20;;;;;;5079030;28;20471;-61
2022/05/07 12:48:04;;;;;;;32.23;10.20;;;24.40;5.40;;;;;;5076561;28;20460;-59
2022/05/07 12:50:31;;;;;;;31.60;9.53;;;24.20;5.20;;;;;;5077287;28;20473;-59
2022/05/07 12:52:58;;;;;;;33.60;9.87;;;24.00;5.70;;;;;;5079778;28;21000;-60
2022/05/07 12:55:26;;;;;;;32.97;9.70;;;23.80;5.90;;;;;;5075145;28;20465;-60
2022/05/07 12:57:53;;;;;;;33.17;10.20;;;23.70;6.10;;;;;;5080959;28;20565;-60
2022/05/07 13:00:20;;;;;;;33.47;10.80;;;23.70;6.60;;;;;;5080933;28;20476;-59
2022/05/07 13:02:50;;;;;;;32.30;10.17;;;23.70;6.50;;;;;;5077466;28;20468;-59
2022/05/07 13:05:17;;;;;;;34.77;10.87;;;23.60;6.40;;;;;;5077827;28;20491;-59
2022/05/07 13:07:44;;;;;;;33.60;10.80;;;23.50;6.60;;;;;;5080697;28;20462;-59
2022/05/07 13:10:11;;;;;;;33.10;10.00;;;23.30;7.30;;;;;;5088079;28;20557;-59
2022/05/07 13:12:40;;;;;;;33.37;10.53;;;23.20;7.80;;;;;;5080393;28;20472;-60